createdAt,value
2023-03-27T00:01:38.512Z,78.20
2023-03-27T00:04:07.012Z,78.27
2023-03-27T00:06:35.044Z,78.16
2023-03-27T00:09:03.952Z,78.32
2023-03-27T00:11:32.080Z,78.51
2023-03-27T00:14:00.193Z,78.73
2023-03-27T00:16:30.954Z,78.92
2023-03-27T00:18:58.934Z,79.14
2023-03-27T00:21:27.219Z,79.08
2023-03-27T00:23:56.800Z,79.32
2023-03-27T00:26:25.980Z,79.37
2023-03-27T00:28:54.954Z,79.37
2023-03-27T00:31:22.858Z,79.62
2023-03-27T00:33:52.563Z,79.72
2023-03-27T00:36:20.928Z,79.74
2023-03-27T00:38:49.471Z,80.00
2023-03-27T00:41:17.542Z,79.97
2023-03-27T00:43:45.501Z,80.15
2023-03-27T00:46:28.062Z,80.34
2023-03-27T00:48:59.168Z,80.41
2023-03-27T00:51:28.621Z,80.46
2023-03-27T00:53:58.008Z,80.66
2023-03-27T00:56:26.116Z,80.77
2023-03-27T00:58:55.749Z,80.90
2023-03-27T01:01:24.921Z,81.01
2023-03-27T01:03:54.074Z,81.17
2023-03-27T01:06:24.023Z,81.03
2023-03-27T01:08:52.177Z,81.35
2023-03-27T01:11:25.761Z,81.32
2023-03-27T01:14:06.831Z,81.56
2023-03-27T01:16:39.872Z,81.70
2023-03-27T01:19:21.586Z,81.76
2023-03-27T01:22:07.202Z,81.68
2023-03-27T01:24:43.051Z,81.89
2023-03-27T01:27:16.364Z,81.75
2023-03-27T01:29:59.089Z,81.86
2023-03-27T01:32:42.884Z,81.98
2023-03-27T01:35:38.630Z,82.46
2023-03-27T01:38:24.089Z,82.33
2023-03-27T01:40:59.116Z,82.70
2023-03-27T01:43:32.447Z,82.69
2023-03-27T01:46:03.970Z,82.78
2023-03-27T01:48:36.131Z,82.85
2023-03-27T01:51:05.859Z,82.77
2023-03-27T01:53:37.142Z,82.78
2023-03-27T01:56:08.922Z,82.93
2023-03-27T01:58:39.541Z,82.87
2023-03-27T02:01:11.042Z,83.01
2023-03-27T02:03:42.263Z,83.27
2023-03-27T02:06:12.766Z,83.39
2023-03-27T02:08:43.525Z,83.37
2023-03-27T02:11:12.724Z,83.45
2023-03-27T02:13:43.614Z,83.44
2023-03-27T02:16:15.398Z,83.63
2023-03-27T02:18:47.640Z,83.77
2023-03-27T02:21:15.666Z,83.81
2023-03-27T02:23:43.726Z,83.78
2023-03-27T02:26:14.577Z,83.73
2023-03-27T02:29:00.378Z,83.73
2023-03-27T02:31:35.101Z,83.77
2023-03-27T02:34:14.521Z,83.88
2023-03-27T02:36:51.050Z,83.88
2023-03-27T02:39:21.811Z,83.85
2023-03-27T02:41:55.544Z,84.11
2023-03-27T02:44:30.017Z,84.13
2023-03-27T02:47:02.444Z,84.03
2023-03-27T02:49:33.073Z,84.28
2023-03-27T02:52:03.952Z,84.32
2023-03-27T02:54:36.776Z,84.40
2023-03-27T02:57:10.733Z,84.31
2023-03-27T02:59:42.577Z,84.43
2023-03-27T03:02:12.676Z,84.43
2023-03-27T03:04:42.505Z,84.61
2023-03-27T03:07:11.718Z,84.68
2023-03-27T03:09:40.473Z,84.82
2023-03-27T03:12:10.175Z,84.90
2023-03-27T03:14:40.142Z,84.84
2023-03-27T03:17:07.988Z,84.77
2023-03-27T03:19:36.106Z,84.88
2023-03-27T03:22:04.039Z,84.80
2023-03-27T03:24:32.310Z,85.02
2023-03-27T03:27:00.922Z,85.04
2023-03-27T03:29:35.563Z,85.11
2023-03-27T03:32:03.522Z,85.18
2023-03-27T03:34:33.440Z,85.27
2023-03-27T03:37:01.630Z,85.41
2023-03-27T03:39:29.660Z,85.60
2023-03-27T03:41:57.664Z,85.61
2023-03-27T03:44:25.560Z,85.76
2023-03-27T03:46:54.966Z,85.62
2023-03-27T03:49:22.778Z,85.64
2023-03-27T03:52:04.231Z,85.82
2023-03-27T03:54:33.169Z,85.67
2023-03-27T03:57:01.181Z,85.83
2023-03-27T03:59:30.181Z,86.00
2023-03-27T04:02:00.662Z,85.97
2023-03-27T04:04:29.068Z,85.97
2023-03-27T04:06:58.522Z,86.00
2023-03-27T04:09:26.489Z,86.00
2023-03-27T04:11:54.445Z,86.06
2023-03-27T04:14:22.234Z,86.16
2023-03-27T04:16:50.105Z,86.54
2023-03-27T04:19:20.024Z,86.88
2023-03-27T04:21:48.783Z,86.83
2023-03-27T04:24:18.490Z,86.80
2023-03-27T04:26:48.051Z,86.75
2023-03-27T04:29:15.886Z,87.09
2023-03-27T04:31:46.775Z,87.22
2023-03-27T04:34:14.917Z,87.48
2023-03-27T04:36:44.630Z,87.78
2023-03-27T04:39:12.452Z,88.03
2023-03-27T04:41:40.752Z,88.15
2023-03-27T04:44:09.169Z,88.24
2023-03-27T04:46:37.311Z,88.48
2023-03-27T04:49:06.157Z,88.22
2023-03-27T04:51:34.065Z,88.34
2023-03-27T04:54:05.124Z,88.42
2023-03-27T04:56:33.920Z,88.76
2023-03-27T04:59:03.324Z,88.75
2023-03-27T05:01:31.555Z,88.88
2023-03-27T05:03:59.515Z,88.83
2023-03-27T05:06:27.498Z,89.05
2023-03-27T05:08:55.464Z,89.07
2023-03-27T05:11:24.662Z,89.14
2023-03-27T05:13:52.575Z,89.26
2023-03-27T05:16:20.727Z,89.26
2023-03-27T05:18:48.561Z,89.63
2023-03-27T05:21:17.030Z,89.76
2023-03-27T05:23:44.856Z,89.88
2023-03-27T05:26:13.144Z,89.95
2023-03-27T05:28:42.433Z,89.91
2023-03-27T05:31:10.933Z,89.93
2023-03-27T05:33:40.145Z,90.52
2023-03-27T05:36:08.353Z,90.50
2023-03-27T05:38:36.515Z,90.92
2023-03-27T05:41:04.447Z,90.75
2023-03-27T05:43:32.381Z,91.11
2023-03-27T05:46:01.648Z,91.22
2023-03-27T05:48:29.714Z,91.19
2023-03-27T05:50:57.911Z,91.22
2023-03-27T05:53:28.033Z,91.08
2023-03-27T05:56:02.709Z,90.88
2023-03-27T05:58:32.953Z,90.84
2023-03-27T06:01:02.678Z,90.99
2023-03-27T06:03:31.577Z,90.91
2023-03-27T06:06:00.438Z,90.47
2023-03-27T06:08:28.722Z,90.11
2023-03-27T06:10:57.664Z,89.96
2023-03-27T06:13:25.697Z,89.50
2023-03-27T06:15:57.803Z,89.32
2023-03-27T06:18:28.878Z,89.02
2023-03-27T06:20:59.294Z,88.74
2023-03-27T06:23:27.516Z,88.64
2023-03-27T06:25:56.943Z,88.26
2023-03-27T06:28:26.353Z,88.14
2023-03-27T06:30:54.641Z,88.02
2023-03-27T06:33:26.074Z,87.72
2023-03-27T06:36:00.796Z,87.33
2023-03-27T06:38:30.957Z,87.17
2023-03-27T06:40:59.790Z,87.04
2023-03-27T06:43:27.783Z,86.68
2023-03-27T06:45:56.338Z,86.78
2023-03-27T06:48:25.072Z,86.79
2023-03-27T06:50:57.136Z,86.90
2023-03-27T06:53:28.195Z,87.04
2023-03-27T06:55:58.355Z,87.39
2023-03-27T06:58:27.561Z,87.50
2023-03-27T07:00:56.178Z,87.64
2023-03-27T07:03:25.981Z,87.82
2023-03-27T07:05:54.114Z,87.66
2023-03-27T07:08:25.545Z,87.75
2023-03-27T07:11:09.806Z,87.47
2023-03-27T07:13:39.215Z,87.24
2023-03-27T07:16:07.703Z,87.23
2023-03-27T07:18:36.351Z,86.95
2023-03-27T07:21:04.696Z,86.83
2023-03-27T07:23:34.644Z,86.75
2023-03-27T07:26:03.300Z,86.36
2023-03-27T07:28:32.897Z,86.27
2023-03-27T07:31:01.087Z,86.09
2023-03-27T07:33:29.100Z,85.86
2023-03-27T07:35:59.927Z,85.83
2023-03-27T07:38:27.941Z,85.65
2023-03-27T07:40:57.733Z,85.72
2023-03-27T07:43:25.600Z,85.55
2023-03-27T07:45:53.477Z,85.63
2023-03-27T07:48:22.512Z,85.38
2023-03-27T07:50:50.473Z,85.30
2023-03-27T07:53:32.587Z,85.17
2023-03-27T07:56:06.276Z,85.05
2023-03-27T07:58:34.427Z,85.01
2023-03-27T08:01:04.766Z,84.93
2023-03-27T08:03:33.015Z,84.95
2023-03-27T08:06:02.611Z,84.84
2023-03-27T08:08:32.154Z,84.75
2023-03-27T08:11:00.758Z,84.67
2023-03-27T08:13:30.513Z,84.35
2023-03-27T08:16:05.336Z,83.89
2023-03-27T08:18:33.318Z,83.58
2023-03-27T15:26:54.106Z,51.41
2023-03-27T15:29:27.470Z,51.42
2023-03-27T15:31:57.484Z,51.15
2023-03-27T15:34:34.200Z,51.40
2023-03-27T15:37:03.830Z,51.29
2023-03-27T15:39:32.194Z,51.31
2023-03-27T15:42:12.541Z,50.66
2023-03-27T15:44:57.856Z,50.03
2023-03-27T15:47:26.893Z,49.65
2023-03-27T15:50:07.566Z,49.29
2023-03-27T15:52:35.427Z,49.41
2023-03-27T15:55:04.076Z,49.33
2023-03-27T15:57:34.648Z,49.71
2023-03-27T16:00:07.998Z,49.87
2023-03-27T16:02:36.542Z,50.38
2023-03-27T16:05:04.566Z,50.28
2023-03-27T16:07:37.147Z,50.64
2023-03-27T16:10:07.006Z,51.08
2023-03-27T16:12:50.274Z,51.50
2023-03-27T16:15:28.666Z,51.32
2023-03-27T16:17:58.451Z,50.56
2023-03-27T16:20:34.994Z,51.16
2023-03-27T16:23:04.302Z,51.42
2023-03-27T16:25:32.164Z,51.74
2023-03-27T16:39:23.162Z,51.00
2023-03-27T16:41:51.363Z,50.61
2023-03-27T16:44:19.428Z,50.03
2023-03-27T16:46:47.622Z,50.26
2023-03-27T16:49:16.968Z,50.30
2023-03-27T16:51:45.002Z,50.05
2023-03-27T16:54:13.174Z,50.54
2023-03-27T16:56:42.827Z,50.74
2023-03-27T16:59:10.998Z,50.88
2023-03-27T17:01:39.394Z,51.02
2023-03-27T17:04:07.672Z,50.72
2023-03-27T17:06:36.437Z,50.80
2023-03-27T17:09:04.965Z,51.24
2023-03-27T17:11:33.136Z,51.55
2023-03-27T17:14:02.854Z,51.89
2023-03-27T17:16:31.372Z,51.91
2023-03-27T17:18:59.514Z,52.46
2023-03-27T17:21:28.247Z,52.66
2023-03-27T17:23:58.148Z,52.70
2023-03-27T17:26:28.883Z,53.17
2023-03-27T17:28:57.490Z,53.63
2023-03-27T17:31:29.473Z,53.33
2023-03-27T17:33:58.912Z,53.44
2023-03-27T17:36:36.764Z,53.90
2023-03-27T17:39:09.727Z,54.25
2023-03-27T17:41:37.923Z,54.75
2023-03-27T17:44:07.992Z,55.06
2023-03-27T17:46:37.421Z,55.35
2023-03-27T17:49:06.171Z,55.30
2023-03-27T17:51:34.424Z,55.68
2023-03-27T17:54:02.873Z,56.25
2023-03-27T17:56:30.882Z,56.79
2023-03-27T17:59:00.131Z,56.82
2023-03-27T18:01:28.808Z,56.88
2023-03-27T18:04:00.614Z,57.35
2023-03-27T18:06:29.036Z,57.53
2023-03-27T18:08:57.156Z,57.92
2023-03-27T18:11:26.139Z,58.16
2023-03-27T18:13:54.201Z,58.13
2023-03-27T18:16:23.229Z,57.87
2023-03-27T18:18:54.879Z,58.03
2023-03-27T18:21:24.782Z,58.28
2023-03-27T18:23:53.925Z,58.45
2023-03-27T18:26:22.085Z,58.91
2023-03-27T18:28:50.113Z,59.09
2023-03-27T18:31:18.249Z,58.89
2023-03-27T18:33:46.343Z,58.95
2023-03-27T18:36:15.555Z,59.07
2023-03-27T18:38:46.306Z,59.28
2023-03-27T18:41:15.229Z,59.72
2023-03-27T18:43:43.201Z,59.99
2023-03-27T18:46:16.823Z,60.35
2023-03-27T18:48:45.597Z,60.96
2023-03-27T18:51:14.045Z,62.05
2023-03-27T18:53:42.113Z,62.79
2023-03-27T18:56:12.291Z,63.30
2023-03-27T18:58:40.089Z,64.03
2023-03-27T19:01:10.038Z,64.51
2023-03-27T19:03:39.664Z,64.80
2023-03-27T19:06:10.450Z,65.25
2023-03-27T19:08:42.147Z,65.62
2023-03-27T19:11:12.095Z,66.30
2023-03-27T19:13:40.102Z,66.57
2023-03-27T19:16:14.355Z,66.93
2023-03-27T19:18:43.122Z,67.71
2023-03-27T19:21:11.250Z,67.96
2023-03-27T19:23:39.248Z,68.24
2023-03-27T19:26:08.756Z,68.61
2023-03-27T19:28:39.948Z,68.95
2023-03-27T19:31:08.652Z,69.33
2023-03-27T19:33:37.135Z,69.60
2023-03-27T19:36:06.021Z,70.37
2023-03-27T19:38:34.125Z,70.50
2023-03-27T19:41:02.319Z,71.01
2023-03-27T19:43:30.556Z,71.46
2023-03-27T19:46:15.672Z,72.14
2023-03-27T19:48:47.590Z,72.76
2023-03-27T19:51:15.625Z,73.33
2023-03-27T19:53:43.723Z,73.57
2023-03-27T19:56:11.806Z,73.83
2023-03-27T19:58:39.984Z,74.35
2023-03-27T20:01:09.630Z,74.64
2023-03-27T20:03:40.053Z,75.13
2023-03-27T20:06:14.158Z,75.85
2023-03-27T20:08:43.457Z,76.39
2023-03-27T20:11:11.708Z,76.63
2023-03-27T20:13:52.934Z,77.56
2023-03-27T20:16:26.632Z,78.16
2023-03-27T20:19:03.470Z,78.38
2023-03-27T20:21:33.840Z,79.76
2023-03-27T20:24:02.313Z,80.26
2023-03-27T20:26:32.546Z,80.90
2023-03-27T20:29:00.576Z,81.92
2023-03-27T20:31:30.109Z,81.47
2023-03-27T20:33:58.227Z,81.91
2023-03-27T20:36:26.502Z,82.51
2023-03-27T20:38:56.476Z,83.07
2023-03-27T20:41:27.275Z,83.15
2023-03-27T20:43:55.420Z,82.85
2023-03-27T20:46:23.437Z,82.72
2023-03-27T20:48:54.805Z,82.23
2023-03-27T20:51:25.126Z,82.07
2023-03-27T20:53:55.847Z,81.60
2023-03-27T20:56:25.110Z,81.16
2023-03-27T20:58:53.416Z,80.45
2023-03-27T21:01:27.839Z,79.93
2023-03-27T21:03:58.482Z,79.43
2023-03-27T21:06:27.083Z,78.87
2023-03-27T21:08:55.114Z,78.54
2023-03-27T21:11:23.528Z,78.37
2023-03-27T21:13:51.632Z,78.30
2023-03-27T21:16:19.883Z,78.18
2023-03-27T21:18:48.060Z,77.95
2023-03-27T21:21:17.527Z,77.84
2023-03-27T21:23:47.403Z,77.82
2023-03-27T21:26:15.764Z,77.61
2023-03-27T21:28:43.812Z,77.48
2023-03-27T21:31:12.917Z,77.56
2023-03-27T21:33:41.073Z,77.53
2023-03-27T21:36:10.685Z,77.62
2023-03-27T21:38:40.391Z,78.01
2023-03-27T21:41:08.823Z,77.93
2023-03-27T21:43:36.850Z,78.02
2023-03-27T21:46:05.300Z,78.82
2023-03-27T21:48:33.348Z,79.76
2023-03-27T21:51:02.114Z,80.93
2023-03-27T21:53:30.286Z,81.07
2023-03-27T21:56:00.550Z,81.75
2023-03-27T21:58:29.322Z,82.29
2023-03-27T22:00:58.549Z,82.77
2023-03-27T22:03:27.505Z,83.93
2023-03-27T22:06:10.348Z,84.14
2023-03-27T22:08:41.128Z,84.63
2023-03-27T22:11:11.480Z,85.10
2023-03-27T22:13:40.396Z,85.15
2023-03-27T22:16:10.122Z,85.56
2023-03-27T22:18:38.406Z,86.01
2023-03-27T22:21:14.818Z,86.30
2023-03-27T22:23:42.976Z,86.41
2023-03-27T22:26:13.005Z,86.09
2023-03-27T22:28:41.034Z,85.42
2023-03-27T22:31:09.418Z,84.92
2023-03-27T22:33:37.987Z,84.49
2023-03-27T22:36:07.466Z,83.96
2023-03-27T22:38:35.914Z,83.42
2023-03-27T22:41:06.062Z,83.11
2023-03-27T22:43:35.767Z,82.40
2023-03-27T22:46:07.050Z,82.22
2023-03-27T22:48:35.918Z,81.91
2023-03-27T22:51:04.304Z,81.74
2023-03-27T22:53:32.943Z,81.82
2023-03-27T22:56:02.136Z,81.46
2023-03-27T22:58:31.486Z,81.47
2023-03-27T23:01:01.588Z,81.44
2023-03-27T23:03:29.832Z,81.28
2023-03-27T23:05:58.229Z,80.98
2023-03-27T23:08:28.526Z,81.36
2023-03-27T23:10:57.350Z,81.72
2023-03-27T23:13:25.648Z,81.79
2023-03-27T23:15:53.688Z,82.28
2023-03-27T23:18:25.421Z,82.72
2023-03-27T23:20:58.650Z,82.94
2023-03-27T23:23:28.111Z,83.14
2023-03-27T23:25:57.841Z,83.57
2023-03-27T23:28:26.556Z,83.89
2023-03-27T23:30:55.683Z,83.99
2023-03-27T23:33:25.533Z,84.50
2023-03-27T23:35:54.637Z,84.55
2023-03-27T23:38:22.690Z,84.58
2023-03-27T23:40:56.925Z,84.93
2023-03-27T23:43:25.138Z,85.55
2023-03-27T23:45:53.592Z,86.05
2023-03-27T23:48:21.999Z,86.32
2023-03-27T23:50:51.893Z,86.84
2023-03-27T23:53:20.271Z,87.39
2023-03-27T23:55:48.439Z,87.78
2023-03-27T23:58:17.638Z,88.10
